sensor_id;sensor_type;location;lat;lon;timestamp;P1;durP1;ratioP1;P2;durP2;ratioP2
40807;SDS011;26523;52.504;13.498;2023-05-09T00:00:42;10.63;;;2.50;;
40807;SDS011;26523;52.504;13.498;2023-05-09T00:03:09;6.93;;;2.55;;
40807;SDS011;26523;52.504;13.498;2023-05-09T00:05:35;5.38;;;2.72;;
40807;SDS011;26523;52.504;13.498;2023-05-09T00:08:01;8.45;;;2.90;;
40807;SDS011;26523;52.504;13.498;2023-05-09T00:10:27;4.78;;;2.97;;
40807;SDS011;26523;52.504;13.498;2023-05-09T00:12:53;9.48;;;3.95;;
40807;SDS011;26523;52.504;13.498;2023-05-09T00:15:18;6.65;;;3.13;;
40807;SDS011;26523;52.504;13.498;2023-05-09T00:17:44;7.03;;;2.53;;
40807;SDS011;26523;52.504;13.498;2023-05-09T00:20:10;6.07;;;2.90;;
40807;SDS011;26523;52.504;13.498;2023-05-09T00:22:39;5.75;;;3.00;;
40807;SDS011;26523;52.504;13.498;2023-05-09T00:25:06;8.68;;;3.45;;
40807;SDS011;26523;52.504;13.498;2023-05-09T00:27:33;23.20;;;3.50;;
40807;SDS011;26523;52.504;13.498;2023-05-09T00:29:59;4.45;;;2.70;;
40807;SDS011;26523;52.504;13.498;2023-05-09T00:32:24;6.75;;;3.20;;
40807;SDS011;26523;52.504;13.498;2023-05-09T00:34:50;7.85;;;3.08;;
40807;SDS011;26523;52.504;13.498;2023-05-09T00:37:16;4.90;;;3.00;;
40807;SDS011;26523;52.504;13.498;2023-05-09T00:39:43;7.50;;;3.13;;
40807;SDS011;26523;52.504;13.498;2023-05-09T00:42:09;7.22;;;3.33;;
40807;SDS011;26523;52.504;13.498;2023-05-09T00:44:35;6.38;;;3.17;;
40807;SDS011;26523;52.504;13.498;2023-05-09T00:47:01;4.60;;;2.78;;
40807;SDS011;26523;52.504;13.498;2023-05-09T00:49:27;5.68;;;2.55;;
40807;SDS011;26523;52.504;13.498;2023-05-09T00:51:53;4.60;;;2.47;;
40807;SDS011;26523;52.504;13.498;2023-05-09T00:54:19;7.00;;;3.00;;
40807;SDS011;26523;52.504;13.498;2023-05-09T00:56:45;6.78;;;3.17;;
40807;SDS011;26523;52.504;13.498;2023-05-09T00:59:11;5.78;;;2.90;;
40807;SDS011;26523;52.504;13.498;2023-05-09T01:01:36;5.72;;;3.13;;
40807;SDS011;26523;52.504;13.498;2023-05-09T01:04:02;5.53;;;2.70;;
40807;SDS011;26523;52.504;13.498;2023-05-09T01:09:27;8.48;;;2.45;;
40807;SDS011;26523;52.504;13.498;2023-05-09T01:12:03;6.13;;;3.03;;
40807;SDS011;26523;52.504;13.498;2023-05-09T01:17:59;5.18;;;2.65;;
40807;SDS011;26523;52.504;13.498;2023-05-09T01:22:36;4.72;;;2.42;;
40807;SDS011;26523;52.504;13.498;2023-05-09T01:31:19;6.78;;;2.95;;
40807;SDS011;26523;52.504;13.498;2023-05-09T01:33:48;5.65;;;2.63;;
40807;SDS011;26523;52.504;13.498;2023-05-09T01:36:18;7.20;;;3.05;;
40807;SDS011;26523;52.504;13.498;2023-05-09T01:38:45;7.63;;;3.13;;
40807;SDS011;26523;52.504;13.498;2023-05-09T01:41:14;5.35;;;2.38;;
40807;SDS011;26523;52.504;13.498;2023-05-09T01:43:41;6.20;;;2.60;;
40807;SDS011;26523;52.504;13.498;2023-05-09T01:46:11;5.35;;;2.40;;
40807;SDS011;26523;52.504;13.498;2023-05-09T01:48:38;6.07;;;2.47;;
40807;SDS011;26523;52.504;13.498;2023-05-09T01:51:06;7.85;;;2.50;;
40807;SDS011;26523;52.504;13.498;2023-05-09T01:53:33;6.03;;;2.80;;
40807;SDS011;26523;52.504;13.498;2023-05-09T01:56:00;4.70;;;2.15;;
40807;SDS011;26523;52.504;13.498;2023-05-09T01:58:28;5.28;;;2.22;;
40807;SDS011;26523;52.504;13.498;2023-05-09T02:00:57;4.20;;;2.50;;
40807;SDS011;26523;52.504;13.498;2023-05-09T02:03:24;5.10;;;2.50;;
40807;SDS011;26523;52.504;13.498;2023-05-09T02:05:51;4.78;;;2.28;;
40807;SDS011;26523;52.504;13.498;2023-05-09T02:08:19;3.90;;;2.10;;
40807;SDS011;26523;52.504;13.498;2023-05-09T02:10:46;8.32;;;2.20;;
40807;SDS011;26523;52.504;13.498;2023-05-09T02:13:13;10.85;;;3.15;;
40807;SDS011;26523;52.504;13.498;2023-05-09T02:15:38;5.68;;;1.88;;
40807;SDS011;26523;52.504;13.498;2023-05-09T02:18:04;6.18;;;2.35;;
40807;SDS011;26523;52.504;13.498;2023-05-09T02:20:30;5.43;;;2.05;;
40807;SDS011;26523;52.504;13.498;2023-05-09T02:22:59;4.65;;;2.03;;
40807;SDS011;26523;52.504;13.498;2023-05-09T02:25:25;4.10;;;2.10;;
40807;SDS011;26523;52.504;13.498;2023-05-09T02:27:51;8.35;;;2.05;;
40807;SDS011;26523;52.504;13.498;2023-05-09T02:30:22;5.78;;;2.25;;
40807;SDS011;26523;52.504;13.498;2023-05-09T02:32:49;3.90;;;1.95;;
40807;SDS011;26523;52.504;13.498;2023-05-09T02:35:18;5.20;;;2.13;;
40807;SDS011;26523;52.504;13.498;2023-05-09T02:37:47;3.40;;;1.77;;
40807;SDS011;26523;52.504;13.498;2023-05-09T02:40:13;3.08;;;1.80;;
40807;SDS011;26523;52.504;13.498;2023-05-09T02:42:39;3.92;;;1.90;;
40807;SDS011;26523;52.504;13.498;2023-05-09T02:45:05;5.53;;;2.05;;
40807;SDS011;26523;52.504;13.498;2023-05-09T02:47:31;4.93;;;1.98;;
40807;SDS011;26523;52.504;13.498;2023-05-09T02:49:57;5.43;;;2.08;;
40807;SDS011;26523;52.504;13.498;2023-05-09T02:52:23;4.22;;;2.05;;
40807;SDS011;26523;52.504;13.498;2023-05-09T02:54:48;6.20;;;1.85;;
40807;SDS011;26523;52.504;13.498;2023-05-09T02:57:14;3.63;;;1.88;;
40807;SDS011;26523;52.504;13.498;2023-05-09T02:59:40;3.28;;;1.95;;
40807;SDS011;26523;52.504;13.498;2023-05-09T03:02:06;8.50;;;2.15;;
40807;SDS011;26523;52.504;13.498;2023-05-09T03:04:31;12.35;;;1.85;;
40807;SDS011;26523;52.504;13.498;2023-05-09T03:06:57;4.57;;;1.90;;
40807;SDS011;26523;52.504;13.498;2023-05-09T03:09:23;3.60;;;1.70;;
40807;SDS011;26523;52.504;13.498;2023-05-09T03:11:48;4.15;;;1.95;;
40807;SDS011;26523;52.504;13.498;2023-05-09T03:14:14;9.15;;;2.22;;
40807;SDS011;26523;52.504;13.498;2023-05-09T03:16:40;5.97;;;1.52;;
40807;SDS011;26523;52.504;13.498;2023-05-09T03:19:05;6.93;;;2.47;;
40807;SDS011;26523;52.504;13.498;2023-05-09T03:21:31;4.57;;;2.13;;
40807;SDS011;26523;52.504;13.498;2023-05-09T03:23:57;5.53;;;2.17;;
40807;SDS011;26523;52.504;13.498;2023-05-09T03:26:22;4.45;;;1.90;;
40807;SDS011;26523;52.504;13.498;2023-05-09T03:28:48;5.97;;;2.45;;
40807;SDS011;26523;52.504;13.498;2023-05-09T03:31:14;5.68;;;2.15;;
40807;SDS011;26523;52.504;13.498;2023-05-09T03:33:40;6.63;;;1.80;;
40807;SDS011;26523;52.504;13.498;2023-05-09T03:36:06;6.72;;;2.65;;
40807;SDS011;26523;52.504;13.498;2023-05-09T03:38:32;7.47;;;2.60;;
40807;SDS011;26523;52.504;13.498;2023-05-09T03:40:58;5.43;;;2.58;;
40807;SDS011;26523;52.504;13.498;2023-05-09T03:43:23;5.50;;;2.38;;
40807;SDS011;26523;52.504;13.498;2023-05-09T03:45:50;6.25;;;2.53;;
40807;SDS011;26523;52.504;13.498;2023-05-09T03:48:16;6.18;;;2.40;;
40807;SDS011;26523;52.504;13.498;2023-05-09T03:50:41;4.22;;;2.08;;
40807;SDS011;26523;52.504;13.498;2023-05-09T03:53:08;5.10;;;1.83;;
40807;SDS011;26523;52.504;13.498;2023-05-09T03:55:33;8.60;;;2.53;;
40807;SDS011;26523;52.504;13.498;2023-05-09T03:57:59;6.50;;;2.38;;
40807;SDS011;26523;52.504;13.498;2023-05-09T04:00:25;6.15;;;2.55;;
40807;SDS011;26523;52.504;13.498;2023-05-09T04:02:51;5.10;;;2.55;;
40807;SDS011;26523;52.504;13.498;2023-05-09T04:05:17;22.98;;;3.25;;
40807;SDS011;26523;52.504;13.498;2023-05-09T04:07:43;5.38;;;2.30;;
40807;SDS011;26523;52.504;13.498;2023-05-09T04:10:08;6.55;;;3.13;;
40807;SDS011;26523;52.504;13.498;2023-05-09T04:12:34;5.68;;;2.50;;
40807;SDS011;26523;52.504;13.498;2023-05-09T04:15:00;7.05;;;3.03;;
40807;SDS011;26523;52.504;13.498;2023-05-09T04:17:25;14.20;;;4.38;;
40807;SDS011;26523;52.504;13.498;2023-05-09T04:19:51;19.38;;;2.83;;
40807;SDS011;26523;52.504;13.498;2023-05-09T04:22:17;8.07;;;2.63;;
40807;SDS011;26523;52.504;13.498;2023-05-09T04:24:42;5.03;;;2.20;;
40807;SDS011;26523;52.504;13.498;2023-05-09T04:27:08;7.82;;;2.42;;
40807;SDS011;26523;52.504;13.498;2023-05-09T04:29:34;4.88;;;2.45;;
40807;SDS011;26523;52.504;13.498;2023-05-09T04:32:00;4.75;;;2.38;;
40807;SDS011;26523;52.504;13.498;2023-05-09T04:34:26;6.25;;;2.58;;
40807;SDS011;26523;52.504;13.498;2023-05-09T04:36:53;5.10;;;2.35;;
40807;SDS011;26523;52.504;13.498;2023-05-09T04:39:19;7.70;;;2.40;;
40807;SDS011;26523;52.504;13.498;2023-05-09T04:41:45;7.63;;;2.55;;
40807;SDS011;26523;52.504;13.498;2023-05-09T04:44:15;7.03;;;2.50;;
40807;SDS011;26523;52.504;13.498;2023-05-09T04:46:41;21.20;;;2.80;;
40807;SDS011;26523;52.504;13.498;2023-05-09T04:49:07;7.70;;;2.65;;
40807;SDS011;26523;52.504;13.498;2023-05-09T04:51:33;8.52;;;2.88;;
40807;SDS011;26523;52.504;13.498;2023-05-09T04:53:58;5.82;;;2.70;;
40807;SDS011;26523;52.504;13.498;2023-05-09T04:56:24;6.28;;;2.60;;
40807;SDS011;26523;52.504;13.498;2023-05-09T04:58:50;7.75;;;2.75;;
40807;SDS011;26523;52.504;13.498;2023-05-09T05:01:16;10.07;;;2.83;;
40807;SDS011;26523;52.504;13.498;2023-05-09T05:03:42;5.45;;;2.33;;
40807;SDS011;26523;52.504;13.498;2023-05-09T05:06:08;4.53;;;2.22;;
40807;SDS011;26523;52.504;13.498;2023-05-09T05:08:34;5.57;;;2.72;;
40807;SDS011;26523;52.504;13.498;2023-05-09T05:10:59;6.07;;;2.50;;
40807;SDS011;26523;52.504;13.498;2023-05-09T05:13:25;5.43;;;2.40;;
40807;SDS011;26523;52.504;13.498;2023-05-09T05:15:51;5.57;;;2.63;;
40807;SDS011;26523;52.504;13.498;2023-05-09T05:18:16;7.78;;;2.35;;
40807;SDS011;26523;52.504;13.498;2023-05-09T05:20:42;4.68;;;2.08;;
40807;SDS011;26523;52.504;13.498;2023-05-09T05:23:08;6.00;;;2.40;;
40807;SDS011;26523;52.504;13.498;2023-05-09T05:25:34;6.15;;;2.65;;
40807;SDS011;26523;52.504;13.498;2023-05-09T05:28:00;5.70;;;2.30;;
40807;SDS011;26523;52.504;13.498;2023-05-09T05:30:26;4.78;;;2.50;;
40807;SDS011;26523;52.504;13.498;2023-05-09T05:32:51;6.15;;;2.30;;
40807;SDS011;26523;52.504;13.498;2023-05-09T05:35:17;13.77;;;2.67;;
40807;SDS011;26523;52.504;13.498;2023-05-09T05:37:45;5.45;;;2.75;;
40807;SDS011;26523;52.504;13.498;2023-05-09T05:40:11;7.63;;;2.72;;
40807;SDS011;26523;52.504;13.498;2023-05-09T05:42:37;5.00;;;2.38;;
40807;SDS011;26523;52.504;13.498;2023-05-09T05:45:02;8.73;;;2.97;;
40807;SDS011;26523;52.504;13.498;2023-05-09T05:47:32;9.07;;;2.33;;
40807;SDS011;26523;52.504;13.498;2023-05-09T05:49:59;6.65;;;2.42;;
40807;SDS011;26523;52.504;13.498;2023-05-09T05:52:25;4.75;;;2.50;;
40807;SDS011;26523;52.504;13.498;2023-05-09T05:54:52;10.13;;;2.25;;
40807;SDS011;26523;52.504;13.498;2023-05-09T05:57:18;6.60;;;2.03;;
40807;SDS011;26523;52.504;13.498;2023-05-09T05:59:47;7.05;;;2.15;;
40807;SDS011;26523;52.504;13.498;2023-05-09T06:02:17;11.27;;;2.22;;
40807;SDS011;26523;52.504;13.498;2023-05-09T06:04:43;8.65;;;2.15;;
40807;SDS011;26523;52.504;13.498;2023-05-09T06:07:09;4.53;;;2.00;;
40807;SDS011;26523;52.504;13.498;2023-05-09T06:09:36;5.65;;;1.92;;
40807;SDS011;26523;52.504;13.498;2023-05-09T06:12:02;5.63;;;2.22;;
40807;SDS011;26523;52.504;13.498;2023-05-09T06:14:28;4.45;;;2.13;;
40807;SDS011;26523;52.504;13.498;2023-05-09T06:16:53;4.60;;;2.15;;
40807;SDS011;26523;52.504;13.498;2023-05-09T06:19:19;4.80;;;2.13;;
40807;SDS011;26523;52.504;13.498;2023-05-09T06:21:45;6.80;;;1.88;;
40807;SDS011;26523;52.504;13.498;2023-05-09T06:24:11;5.15;;;2.47;;
40807;SDS011;26523;52.504;13.498;2023-05-09T06:26:36;8.27;;;3.03;;
40807;SDS011;26523;52.504;13.498;2023-05-09T06:29:02;4.57;;;2.40;;
40807;SDS011;26523;52.504;13.498;2023-05-09T06:31:29;6.88;;;2.00;;
40807;SDS011;26523;52.504;13.498;2023-05-09T06:33:55;4.15;;;2.20;;
40807;SDS011;26523;52.504;13.498;2023-05-09T06:36:21;6.47;;;2.10;;
40807;SDS011;26523;52.504;13.498;2023-05-09T06:38:46;4.95;;;2.47;;
40807;SDS011;26523;52.504;13.498;2023-05-09T06:41:12;6.13;;;2.42;;
40807;SDS011;26523;52.504;13.498;2023-05-09T06:43:38;4.53;;;2.00;;
40807;SDS011;26523;52.504;13.498;2023-05-09T06:46:03;5.00;;;2.40;;
40807;SDS011;26523;52.504;13.498;2023-05-09T06:48:29;6.10;;;2.20;;
40807;SDS011;26523;52.504;13.498;2023-05-09T06:50:55;6.63;;;2.50;;
40807;SDS011;26523;52.504;13.498;2023-05-09T06:53:20;6.60;;;2.50;;
40807;SDS011;26523;52.504;13.498;2023-05-09T06:55:46;4.82;;;2.10;;
40807;SDS011;26523;52.504;13.498;2023-05-09T06:58:12;7.15;;;2.22;;
40807;SDS011;26523;52.504;13.498;2023-05-09T07:00:38;4.75;;;2.90;;
40807;SDS011;26523;52.504;13.498;2023-05-09T07:03:03;6.80;;;2.38;;
40807;SDS011;26523;52.504;13.498;2023-05-09T07:05:31;4.80;;;2.30;;
40807;SDS011;26523;52.504;13.498;2023-05-09T07:07:57;6.35;;;2.55;;
40807;SDS011;26523;52.504;13.498;2023-05-09T07:10:23;7.55;;;2.28;;
40807;SDS011;26523;52.504;13.498;2023-05-09T07:12:48;5.00;;;2.40;;
40807;SDS011;26523;52.504;13.498;2023-05-09T07:15:14;4.88;;;2.30;;
40807;SDS011;26523;52.504;13.498;2023-05-09T07:17:40;5.47;;;2.30;;
40807;SDS011;26523;52.504;13.498;2023-05-09T07:20:06;4.25;;;1.90;;
40807;SDS011;26523;52.504;13.498;2023-05-09T07:22:32;4.45;;;2.30;;
40807;SDS011;26523;52.504;13.498;2023-05-09T07:24:58;6.18;;;2.03;;
40807;SDS011;26523;52.504;13.498;2023-05-09T07:27:23;5.65;;;1.77;;
40807;SDS011;26523;52.504;13.498;2023-05-09T07:29:49;4.07;;;1.83;;
40807;SDS011;26523;52.504;13.498;2023-05-09T07:32:17;4.72;;;1.85;;
40807;SDS011;26523;52.504;13.498;2023-05-09T07:34:43;5.07;;;2.00;;
40807;SDS011;26523;52.504;13.498;2023-05-09T07:37:08;5.30;;;2.03;;
40807;SDS011;26523;52.504;13.498;2023-05-09T07:39:34;6.55;;;2.15;;
40807;SDS011;26523;52.504;13.498;2023-05-09T07:42:00;3.38;;;1.92;;
40807;SDS011;26523;52.504;13.498;2023-05-09T07:44:25;5.43;;;2.10;;
40807;SDS011;26523;52.504;13.498;2023-05-09T07:46:51;3.58;;;1.83;;
40807;SDS011;26523;52.504;13.498;2023-05-09T07:49:19;10.90;;;1.98;;
40807;SDS011;26523;52.504;13.498;2023-05-09T07:51:45;5.65;;;2.30;;
40807;SDS011;26523;52.504;13.498;2023-05-09T07:54:11;5.25;;;2.47;;
40807;SDS011;26523;52.504;13.498;2023-05-09T07:56:36;9.15;;;2.00;;
40807;SDS011;26523;52.504;13.498;2023-05-09T07:59:02;4.00;;;1.77;;
40807;SDS011;26523;52.504;13.498;2023-05-09T08:01:27;4.00;;;2.08;;
40807;SDS011;26523;52.504;13.498;2023-05-09T08:03:53;6.57;;;2.00;;
40807;SDS011;26523;52.504;13.498;2023-05-09T08:06:19;6.30;;;2.13;;
40807;SDS011;26523;52.504;13.498;2023-05-09T08:08:44;3.65;;;2.10;;
40807;SDS011;26523;52.504;13.498;2023-05-09T08:11:10;5.70;;;2.55;;
40807;SDS011;26523;52.504;13.498;2023-05-09T08:13:36;6.18;;;2.28;;
40807;SDS011;26523;52.504;13.498;2023-05-09T08:16:01;4.47;;;1.55;;
40807;SDS011;26523;52.504;13.498;2023-05-09T08:18:27;6.47;;;1.80;;
40807;SDS011;26523;52.504;13.498;2023-05-09T08:20:53;4.95;;;2.13;;
40807;SDS011;26523;52.504;13.498;2023-05-09T08:23:18;4.40;;;2.00;;
40807;SDS011;26523;52.504;13.498;2023-05-09T08:25:44;5.18;;;1.67;;
40807;SDS011;26523;52.504;13.498;2023-05-09T08:28:10;5.95;;;1.70;;
40807;SDS011;26523;52.504;13.498;2023-05-09T08:30:35;6.85;;;2.85;;
40807;SDS011;26523;52.504;13.498;2023-05-09T08:33:01;5.43;;;2.10;;
40807;SDS011;26523;52.504;13.498;2023-05-09T08:35:27;7.00;;;2.03;;
40807;SDS011;26523;52.504;13.498;2023-05-09T08:37:53;7.43;;;2.10;;
40807;SDS011;26523;52.504;13.498;2023-05-09T08:40:18;5.43;;;1.90;;
40807;SDS011;26523;52.504;13.498;2023-05-09T08:42:44;11.63;;;2.00;;
40807;SDS011;26523;52.504;13.498;2023-05-09T08:45:12;3.55;;;2.13;;
40807;SDS011;26523;52.504;13.498;2023-05-09T08:47:39;3.75;;;2.13;;
40807;SDS011;26523;52.504;13.498;2023-05-09T08:50:06;6.68;;;2.20;;
40807;SDS011;26523;52.504;13.498;2023-05-09T08:52:32;6.57;;;2.28;;
40807;SDS011;26523;52.504;13.498;2023-05-09T08:54:59;7.35;;;2.25;;
40807;SDS011;26523;52.504;13.498;2023-05-09T08:57:28;3.97;;;2.05;;
40807;SDS011;26523;52.504;13.498;2023-05-09T08:59:53;3.88;;;2.28;;
40807;SDS011;26523;52.504;13.498;2023-05-09T09:02:20;3.90;;;2.10;;
40807;SDS011;26523;52.504;13.498;2023-05-09T09:04:46;7.57;;;2.40;;
40807;SDS011;26523;52.504;13.498;2023-05-09T09:07:13;3.30;;;2.00;;
40807;SDS011;26523;52.504;13.498;2023-05-09T09:09:43;6.90;;;2.25;;
40807;SDS011;26523;52.504;13.498;2023-05-09T09:12:10;7.68;;;3.10;;
40807;SDS011;26523;52.504;13.498;2023-05-09T09:14:38;6.18;;;2.20;;
40807;SDS011;26523;52.504;13.498;2023-05-09T09:17:10;4.47;;;2.55;;
40807;SDS011;26523;52.504;13.498;2023-05-09T09:19:39;6.53;;;2.35;;
40807;SDS011;26523;52.504;13.498;2023-05-09T09:22:08;5.28;;;2.40;;
40807;SDS011;26523;52.504;13.498;2023-05-09T09:24:39;4.28;;;2.47;;
40807;SDS011;26523;52.504;13.498;2023-05-09T09:27:05;5.78;;;2.08;;
40807;SDS011;26523;52.504;13.498;2023-05-09T09:29:31;11.95;;;2.00;;
40807;SDS011;26523;52.504;13.498;2023-05-09T09:32:00;8.80;;;2.10;;
40807;SDS011;26523;52.504;13.498;2023-05-09T09:34:27;6.35;;;2.15;;
40807;SDS011;26523;52.504;13.498;2023-05-09T09:36:53;4.47;;;2.40;;
40807;SDS011;26523;52.504;13.498;2023-05-09T09:39:19;8.88;;;2.47;;
40807;SDS011;26523;52.504;13.498;2023-05-09T09:41:45;4.07;;;2.03;;
40807;SDS011;26523;52.504;13.498;2023-05-09T09:46:43;4.05;;;1.80;;
40807;SDS011;26523;52.504;13.498;2023-05-09T09:49:12;5.88;;;1.98;;
40807;SDS011;26523;52.504;13.498;2023-05-09T09:51:38;4.57;;;1.98;;
40807;SDS011;26523;52.504;13.498;2023-05-09T09:54:08;4.43;;;1.95;;
40807;SDS011;26523;52.504;13.498;2023-05-09T09:56:38;5.20;;;2.13;;
40807;SDS011;26523;52.504;13.498;2023-05-09T10:02:14;5.50;;;2.03;;
40807;SDS011;26523;52.504;13.498;2023-05-09T10:04:33;5.13;;;1.88;;
40807;SDS011;26523;52.504;13.498;2023-05-09T10:07:09;7.93;;;2.22;;
40807;SDS011;26523;52.504;13.498;2023-05-09T10:09:35;4.07;;;1.80;;
40807;SDS011;26523;52.504;13.498;2023-05-09T10:12:05;5.35;;;1.92;;
40807;SDS011;26523;52.504;13.498;2023-05-09T10:14:32;3.88;;;1.80;;
40807;SDS011;26523;52.504;13.498;2023-05-09T10:16:59;6.80;;;3.17;;
40807;SDS011;26523;52.504;13.498;2023-05-09T10:19:27;6.03;;;2.15;;
40807;SDS011;26523;52.504;13.498;2023-05-09T10:21:54;6.20;;;2.58;;
40807;SDS011;26523;52.504;13.498;2023-05-09T10:24:39;7.13;;;1.80;;
40807;SDS011;26523;52.504;13.498;2023-05-09T10:27:09;5.68;;;1.70;;
40807;SDS011;26523;52.504;13.498;2023-05-09T10:29:45;6.07;;;2.10;;
40807;SDS011;26523;52.504;13.498;2023-05-09T10:32:26;2.90;;;1.55;;
40807;SDS011;26523;52.504;13.498;2023-05-09T10:35:17;5.10;;;1.67;;
40807;SDS011;26523;52.504;13.498;2023-05-09T10:37:44;3.40;;;1.70;;
40807;SDS011;26523;52.504;13.498;2023-05-09T10:40:10;4.75;;;2.15;;
40807;SDS011;26523;52.504;13.498;2023-05-09T10:42:42;3.97;;;1.83;;
40807;SDS011;26523;52.504;13.498;2023-05-09T10:45:12;9.10;;;2.08;;
40807;SDS011;26523;52.504;13.498;2023-05-09T10:47:38;5.13;;;2.00;;
40807;SDS011;26523;52.504;13.498;2023-05-09T10:50:09;3.17;;;1.73;;
40807;SDS011;26523;52.504;13.498;2023-05-09T10:53:24;8.00;;;1.90;;
40807;SDS011;26523;52.504;13.498;2023-05-09T10:58:26;4.57;;;2.08;;
40807;SDS011;26523;52.504;13.498;2023-05-09T11:00:54;6.15;;;1.95;;
40807;SDS011;26523;52.504;13.498;2023-05-09T11:03:22;4.55;;;2.13;;
40807;SDS011;26523;52.504;13.498;2023-05-09T11:05:53;5.63;;;1.70;;
40807;SDS011;26523;52.504;13.498;2023-05-09T11:08:29;4.18;;;2.05;;
40807;SDS011;26523;52.504;13.498;2023-05-09T11:10:57;5.88;;;2.55;;
40807;SDS011;26523;52.504;13.498;2023-05-09T11:13:30;3.10;;;1.73;;
40807;SDS011;26523;52.504;13.498;2023-05-09T11:18:29;7.82;;;2.08;;
40807;SDS011;26523;52.504;13.498;2023-05-09T11:20:56;4.53;;;1.83;;
40807;SDS011;26523;52.504;13.498;2023-05-09T11:23:25;4.50;;;2.00;;
40807;SDS011;26523;52.504;13.498;2023-05-09T11:25:58;8.35;;;1.98;;
40807;SDS011;26523;52.504;13.498;2023-05-09T11:28:30;5.40;;;1.80;;
40807;SDS011;26523;52.504;13.498;2023-05-09T11:31:07;5.75;;;1.77;;
40807;SDS011;26523;52.504;13.498;2023-05-09T11:33:34;4.60;;;2.03;;
40807;SDS011;26523;52.504;13.498;2023-05-09T11:36:16;2.80;;;1.52;;
40807;SDS011;26523;52.504;13.498;2023-05-09T11:38:45;5.00;;;1.80;;
40807;SDS011;26523;52.504;13.498;2023-05-09T11:41:11;3.53;;;1.40;;
40807;SDS011;26523;52.504;13.498;2023-05-09T11:43:38;4.72;;;2.20;;
40807;SDS011;26523;52.504;13.498;2023-05-09T11:46:04;3.72;;;1.88;;
40807;SDS011;26523;52.504;13.498;2023-05-09T11:48:30;3.47;;;1.75;;
40807;SDS011;26523;52.504;13.498;2023-05-09T11:51:01;4.90;;;2.00;;
40807;SDS011;26523;52.504;13.498;2023-05-09T11:53:27;6.85;;;2.92;;
40807;SDS011;26523;52.504;13.498;2023-05-09T11:55:53;7.72;;;2.22;;
40807;SDS011;26523;52.504;13.498;2023-05-09T11:58:19;8.13;;;2.00;;
40807;SDS011;26523;52.504;13.498;2023-05-09T12:00:45;8.35;;;1.88;;
40807;SDS011;26523;52.504;13.498;2023-05-09T12:03:11;5.10;;;1.85;;
40807;SDS011;26523;52.504;13.498;2023-05-09T12:05:37;11.95;;;2.15;;
40807;SDS011;26523;52.504;13.498;2023-05-09T12:08:06;5.00;;;1.90;;
40807;SDS011;26523;52.504;13.498;2023-05-09T12:10:36;4.85;;;1.70;;
40807;SDS011;26523;52.504;13.498;2023-05-09T12:13:02;7.00;;;1.70;;
40807;SDS011;26523;52.504;13.498;2023-05-09T12:15:28;7.00;;;1.73;;
40807;SDS011;26523;52.504;13.498;2023-05-09T12:18:01;3.50;;;1.58;;
40807;SDS011;26523;52.504;13.498;2023-05-09T12:20:38;4.60;;;1.25;;
40807;SDS011;26523;52.504;13.498;2023-05-09T12:23:05;6.90;;;1.55;;
40807;SDS011;26523;52.504;13.498;2023-05-09T12:25:31;5.22;;;1.77;;
40807;SDS011;26523;52.504;13.498;2023-05-09T12:27:56;8.35;;;1.73;;
40807;SDS011;26523;52.504;13.498;2023-05-09T12:30:22;3.55;;;1.80;;
40807;SDS011;26523;52.504;13.498;2023-05-09T12:32:48;4.13;;;1.58;;
40807;SDS011;26523;52.504;13.498;2023-05-09T12:35:13;4.32;;;1.80;;
40807;SDS011;26523;52.504;13.498;2023-05-09T12:37:40;6.72;;;1.77;;
40807;SDS011;26523;52.504;13.498;2023-05-09T12:40:20;6.78;;;1.90;;
40807;SDS011;26523;52.504;13.498;2023-05-09T12:42:45;7.32;;;2.05;;
40807;SDS011;26523;52.504;13.498;2023-05-09T12:45:11;5.40;;;2.17;;
40807;SDS011;26523;52.504;13.498;2023-05-09T12:47:37;3.92;;;1.65;;
40807;SDS011;26523;52.504;13.498;2023-05-09T12:50:04;3.83;;;1.70;;
40807;SDS011;26523;52.504;13.498;2023-05-09T12:52:34;4.15;;;1.65;;
40807;SDS011;26523;52.504;13.498;2023-05-09T12:55:08;6.07;;;1.85;;
40807;SDS011;26523;52.504;13.498;2023-05-09T12:57:36;7.35;;;2.13;;
40807;SDS011;26523;52.504;13.498;2023-05-09T13:00:04;3.60;;;1.75;;
40807;SDS011;26523;52.504;13.498;2023-05-09T13:02:38;7.10;;;1.65;;
40807;SDS011;26523;52.504;13.498;2023-05-09T13:05:12;4.68;;;1.40;;
40807;SDS011;26523;52.504;13.498;2023-05-09T13:07:42;4.68;;;1.83;;
40807;SDS011;26523;52.504;13.498;2023-05-09T13:10:12;3.35;;;2.17;;
40807;SDS011;26523;52.504;13.498;2023-05-09T13:12:40;5.82;;;1.60;;
40807;SDS011;26523;52.504;13.498;2023-05-09T13:15:09;6.30;;;1.80;;
40807;SDS011;26523;52.504;13.498;2023-05-09T13:17:36;6.43;;;2.22;;
40807;SDS011;26523;52.504;13.498;2023-05-09T13:20:02;3.08;;;1.60;;
40807;SDS011;26523;52.504;13.498;2023-05-09T13:22:31;4.00;;;1.52;;
40807;SDS011;26523;52.504;13.498;2023-05-09T13:24:57;9.77;;;2.20;;
40807;SDS011;26523;52.504;13.498;2023-05-09T13:27:22;3.22;;;1.60;;
40807;SDS011;26523;52.504;13.498;2023-05-09T13:29:48;6.78;;;1.80;;
40807;SDS011;26523;52.504;13.498;2023-05-09T13:32:14;2.85;;;1.35;;
40807;SDS011;26523;52.504;13.498;2023-05-09T13:34:40;4.85;;;1.50;;
40807;SDS011;26523;52.504;13.498;2023-05-09T13:37:06;3.15;;;1.75;;
40807;SDS011;26523;52.504;13.498;2023-05-09T13:39:32;5.18;;;1.95;;
40807;SDS011;26523;52.504;13.498;2023-05-09T13:41:57;7.55;;;1.92;;
40807;SDS011;26523;52.504;13.498;2023-05-09T13:44:23;4.47;;;1.60;;
40807;SDS011;26523;52.504;13.498;2023-05-09T13:46:49;6.70;;;1.50;;
40807;SDS011;26523;52.504;13.498;2023-05-09T13:49:14;8.05;;;1.90;;
40807;SDS011;26523;52.504;13.498;2023-05-09T13:51:40;5.60;;;2.00;;
40807;SDS011;26523;52.504;13.498;2023-05-09T13:54:06;7.07;;;2.30;;
40807;SDS011;26523;52.504;13.498;2023-05-09T13:56:36;11.90;;;1.95;;
40807;SDS011;26523;52.504;13.498;2023-05-09T13:59:03;4.55;;;1.95;;
40807;SDS011;26523;52.504;13.498;2023-05-09T14:01:29;4.30;;;1.80;;
40807;SDS011;26523;52.504;13.498;2023-05-09T14:03:55;6.10;;;2.17;;
40807;SDS011;26523;52.504;13.498;2023-05-09T14:06:21;5.10;;;1.98;;
40807;SDS011;26523;52.504;13.498;2023-05-09T14:08:46;4.32;;;1.92;;
40807;SDS011;26523;52.504;13.498;2023-05-09T14:11:12;4.80;;;2.05;;
40807;SDS011;26523;52.504;13.498;2023-05-09T14:13:38;5.25;;;1.65;;
40807;SDS011;26523;52.504;13.498;2023-05-09T14:16:04;5.93;;;1.80;;
40807;SDS011;26523;52.504;13.498;2023-05-09T14:18:30;3.72;;;1.80;;
40807;SDS011;26523;52.504;13.498;2023-05-09T14:20:55;9.07;;;2.08;;
40807;SDS011;26523;52.504;13.498;2023-05-09T14:23:21;7.03;;;1.80;;
40807;SDS011;26523;52.504;13.498;2023-05-09T14:25:47;4.35;;;1.63;;
40807;SDS011;26523;52.504;13.498;2023-05-09T14:28:13;4.50;;;1.63;;
40807;SDS011;26523;52.504;13.498;2023-05-09T14:30:39;3.40;;;1.67;;
40807;SDS011;26523;52.504;13.498;2023-05-09T14:33:05;5.55;;;2.20;;
40807;SDS011;26523;52.504;13.498;2023-05-09T14:35:31;3.25;;;1.65;;
40807;SDS011;26523;52.504;13.498;2023-05-09T14:37:58;2.72;;;1.50;;
40807;SDS011;26523;52.504;13.498;2023-05-09T14:40:25;9.38;;;2.70;;
40807;SDS011;26523;52.504;13.498;2023-05-09T14:42:55;3.88;;;1.60;;
40807;SDS011;26523;52.504;13.498;2023-05-09T14:45:28;7.43;;;1.80;;
40807;SDS011;26523;52.504;13.498;2023-05-09T14:47:54;4.00;;;2.00;;
40807;SDS011;26523;52.504;13.498;2023-05-09T14:50:20;4.45;;;1.45;;
40807;SDS011;26523;52.504;13.498;2023-05-09T14:52:47;7.40;;;1.63;;
40807;SDS011;26523;52.504;13.498;2023-05-09T14:55:13;5.20;;;1.55;;
40807;SDS011;26523;52.504;13.498;2023-05-09T14:57:39;6.57;;;1.48;;